sensor_id;sensor_type;location;lat;lon;timestamp;P1;durP1;ratioP1;P2;durP2;ratioP2
34459;SDS011;20704;51.260;22.558;2023-02-28T00:01:28;9.27;;;3.93;;
34459;SDS011;20704;51.260;22.558;2023-02-28T00:03:32;8.77;;;4.40;;
34459;SDS011;20704;51.260;22.558;2023-02-28T00:05:36;7.53;;;4.20;;
34459;SDS011;20704;51.260;22.558;2023-02-28T00:07:39;10.70;;;4.63;;
34459;SDS011;20704;51.260;22.558;2023-02-28T00:09:41;8.33;;;3.97;;
34459;SDS011;20704;51.260;22.558;2023-02-28T00:11:44;8.47;;;3.40;;
34459;SDS011;20704;51.260;22.558;2023-02-28T00:13:46;6.47;;;3.63;;
34459;SDS011;20704;51.260;22.558;2023-02-28T00:15:57;4.57;;;2.93;;
34459;SDS011;20704;51.260;22.558;2023-02-28T00:18:03;7.50;;;3.57;;
34459;SDS011;20704;51.260;22.558;2023-02-28T00:20:06;6.63;;;3.50;;
34459;SDS011;20704;51.260;22.558;2023-02-28T00:22:09;6.43;;;3.27;;
34459;SDS011;20704;51.260;22.558;2023-02-28T00:24:12;6.83;;;3.40;;
34459;SDS011;20704;51.260;22.558;2023-02-28T00:26:14;9.37;;;3.03;;
34459;SDS011;20704;51.260;22.558;2023-02-28T00:28:16;5.07;;;3.03;;
34459;SDS011;20704;51.260;22.558;2023-02-28T00:30:22;4.43;;;2.53;;
34459;SDS011;20704;51.260;22.558;2023-02-28T00:32:25;5.00;;;2.53;;
34459;SDS011;20704;51.260;22.558;2023-02-28T00:34:27;4.20;;;2.50;;
34459;SDS011;20704;51.260;22.558;2023-02-28T00:36:30;5.70;;;2.70;;
34459;SDS011;20704;51.260;22.558;2023-02-28T00:38:32;5.07;;;3.10;;
34459;SDS011;20704;51.260;22.558;2023-02-28T00:40:35;5.47;;;2.67;;
34459;SDS011;20704;51.260;22.558;2023-02-28T00:42:37;7.33;;;2.97;;
34459;SDS011;20704;51.260;22.558;2023-02-28T00:44:39;7.60;;;3.30;;
34459;SDS011;20704;51.260;22.558;2023-02-28T00:46:41;7.10;;;3.10;;
34459;SDS011;20704;51.260;22.558;2023-02-28T00:48:44;9.30;;;3.97;;
34459;SDS011;20704;51.260;22.558;2023-02-28T00:50:48;7.67;;;3.27;;
34459;SDS011;20704;51.260;22.558;2023-02-28T00:52:51;7.90;;;3.57;;
34459;SDS011;20704;51.260;22.558;2023-02-28T00:54:53;7.30;;;3.50;;
34459;SDS011;20704;51.260;22.558;2023-02-28T00:56:56;6.87;;;2.87;;
34459;SDS011;20704;51.260;22.558;2023-02-28T00:58:58;5.40;;;3.00;;
34459;SDS011;20704;51.260;22.558;2023-02-28T01:01:01;6.40;;;2.83;;
34459;SDS011;20704;51.260;22.558;2023-02-28T01:03:04;7.97;;;2.97;;
34459;SDS011;20704;51.260;22.558;2023-02-28T01:05:07;4.97;;;3.40;;
34459;SDS011;20704;51.260;22.558;2023-02-28T01:07:10;7.77;;;2.90;;
34459;SDS011;20704;51.260;22.558;2023-02-28T01:09:12;7.13;;;3.03;;
34459;SDS011;20704;51.260;22.558;2023-02-28T01:11:15;6.20;;;2.70;;
34459;SDS011;20704;51.260;22.558;2023-02-28T01:13:19;6.53;;;3.10;;
34459;SDS011;20704;51.260;22.558;2023-02-28T01:15:21;3.60;;;2.60;;
34459;SDS011;20704;51.260;22.558;2023-02-28T01:17:24;6.47;;;2.73;;
34459;SDS011;20704;51.260;22.558;2023-02-28T01:19:27;10.10;;;2.77;;
34459;SDS011;20704;51.260;22.558;2023-02-28T01:21:30;6.83;;;2.90;;
34459;SDS011;20704;51.260;22.558;2023-02-28T01:23:32;9.03;;;4.07;;
34459;SDS011;20704;51.260;22.558;2023-02-28T01:25:35;7.33;;;3.53;;
34459;SDS011;20704;51.260;22.558;2023-02-28T01:27:38;6.50;;;3.70;;
34459;SDS011;20704;51.260;22.558;2023-02-28T01:29:41;4.60;;;2.73;;
34459;SDS011;20704;51.260;22.558;2023-02-28T01:31:43;7.23;;;3.40;;
34459;SDS011;20704;51.260;22.558;2023-02-28T01:33:46;7.33;;;2.90;;
34459;SDS011;20704;51.260;22.558;2023-02-28T01:35:48;7.50;;;3.70;;
34459;SDS011;20704;51.260;22.558;2023-02-28T01:37:51;7.33;;;3.37;;
34459;SDS011;20704;51.260;22.558;2023-02-28T01:39:54;6.77;;;3.50;;
34459;SDS011;20704;51.260;22.558;2023-02-28T01:41:56;6.83;;;3.40;;
34459;SDS011;20704;51.260;22.558;2023-02-28T01:44:00;10.13;;;4.27;;
34459;SDS011;20704;51.260;22.558;2023-02-28T01:46:05;9.70;;;3.93;;
34459;SDS011;20704;51.260;22.558;2023-02-28T01:48:07;11.17;;;5.33;;
34459;SDS011;20704;51.260;22.558;2023-02-28T01:50:21;11.80;;;4.97;;
34459;SDS011;20704;51.260;22.558;2023-02-28T01:52:26;16.63;;;5.30;;
34459;SDS011;20704;51.260;22.558;2023-02-28T01:54:30;11.97;;;5.10;;
34459;SDS011;20704;51.260;22.558;2023-02-28T01:56:35;11.17;;;5.67;;
34459;SDS011;20704;51.260;22.558;2023-02-28T01:58:38;7.73;;;4.07;;
34459;SDS011;20704;51.260;22.558;2023-02-28T02:00:40;8.83;;;4.80;;
34459;SDS011;20704;51.260;22.558;2023-02-28T02:02:46;9.97;;;5.10;;
34459;SDS011;20704;51.260;22.558;2023-02-28T02:04:55;13.17;;;5.73;;
34459;SDS011;20704;51.260;22.558;2023-02-28T02:07:04;10.00;;;5.90;;
34459;SDS011;20704;51.260;22.558;2023-02-28T02:09:07;14.47;;;6.63;;
34459;SDS011;20704;51.260;22.558;2023-02-28T02:11:09;11.67;;;6.07;;
34459;SDS011;20704;51.260;22.558;2023-02-28T02:15:40;9.63;;;5.20;;
34459;SDS011;20704;51.260;22.558;2023-02-28T02:17:50;12.17;;;6.60;;
34459;SDS011;20704;51.260;22.558;2023-02-28T02:33:02;11.30;;;4.53;;
34459;SDS011;20704;51.260;22.558;2023-02-28T02:35:40;7.90;;;3.80;;
34459;SDS011;20704;51.260;22.558;2023-02-28T02:42:20;11.80;;;3.97;;
34459;SDS011;20704;51.260;22.558;2023-02-28T02:44:39;6.83;;;3.57;;
34459;SDS011;20704;51.260;22.558;2023-02-28T02:46:48;7.00;;;4.23;;
34459;SDS011;20704;51.260;22.558;2023-02-28T02:48:53;8.63;;;4.13;;
34459;SDS011;20704;51.260;22.558;2023-02-28T02:50:59;9.10;;;3.57;;
34459;SDS011;20704;51.260;22.558;2023-02-28T02:53:13;9.80;;;4.80;;
34459;SDS011;20704;51.260;22.558;2023-02-28T02:55:19;8.50;;;4.13;;
34459;SDS011;20704;51.260;22.558;2023-02-28T02:58:07;9.53;;;4.33;;
34459;SDS011;20704;51.260;22.558;2023-02-28T02:59:53;11.53;;;4.70;;
34459;SDS011;20704;51.260;22.558;2023-02-28T03:01:58;13.30;;;4.83;;
34459;SDS011;20704;51.260;22.558;2023-02-28T03:04:06;8.07;;;4.43;;
34459;SDS011;20704;51.260;22.558;2023-02-28T03:06:11;13.77;;;4.77;;
34459;SDS011;20704;51.260;22.558;2023-02-28T03:08:13;10.30;;;5.43;;
34459;SDS011;20704;51.260;22.558;2023-02-28T03:10:33;8.63;;;4.23;;
34459;SDS011;20704;51.260;22.558;2023-02-28T03:12:46;8.48;;;4.13;;
34459;SDS011;20704;51.260;22.558;2023-02-28T03:17:27;7.83;;;4.20;;
34459;SDS011;20704;51.260;22.558;2023-02-28T03:24:27;10.67;;;4.53;;
34459;SDS011;20704;51.260;22.558;2023-02-28T03:26:50;7.37;;;3.67;;
34459;SDS011;20704;51.260;22.558;2023-02-28T03:29:15;10.63;;;4.33;;
34459;SDS011;20704;51.260;22.558;2023-02-28T03:31:51;7.90;;;4.63;;
34459;SDS011;20704;51.260;22.558;2023-02-28T03:34:02;8.23;;;3.93;;
34459;SDS011;20704;51.260;22.558;2023-02-28T03:36:16;14.52;;;4.25;;
34459;SDS011;20704;51.260;22.558;2023-02-28T03:40:33;6.73;;;4.00;;
34459;SDS011;20704;51.260;22.558;2023-02-28T03:42:40;8.87;;;4.03;;
34459;SDS011;20704;51.260;22.558;2023-02-28T03:45:05;7.13;;;3.83;;
34459;SDS011;20704;51.260;22.558;2023-02-28T03:47:15;8.43;;;3.67;;
34459;SDS011;20704;51.260;22.558;2023-02-28T03:49:22;9.80;;;4.20;;
34459;SDS011;20704;51.260;22.558;2023-02-28T03:51:28;7.37;;;3.87;;
34459;SDS011;20704;51.260;22.558;2023-02-28T03:53:34;9.63;;;3.83;;
34459;SDS011;20704;51.260;22.558;2023-02-28T03:55:42;6.50;;;4.07;;
34459;SDS011;20704;51.260;22.558;2023-02-28T03:57:53;6.20;;;3.50;;
34459;SDS011;20704;51.260;22.558;2023-02-28T04:02:11;6.37;;;3.50;;
34459;SDS011;20704;51.260;22.558;2023-02-28T04:04:14;8.80;;;4.93;;
34459;SDS011;20704;51.260;22.558;2023-02-28T04:06:19;11.00;;;4.37;;
34459;SDS011;20704;51.260;22.558;2023-02-28T04:08:23;7.93;;;4.40;;
34459;SDS011;20704;51.260;22.558;2023-02-28T04:10:25;11.03;;;4.50;;
34459;SDS011;20704;51.260;22.558;2023-02-28T04:12:27;14.60;;;5.20;;
34459;SDS011;20704;51.260;22.558;2023-02-28T04:14:29;13.10;;;6.10;;
34459;SDS011;20704;51.260;22.558;2023-02-28T04:16:32;12.80;;;5.83;;
34459;SDS011;20704;51.260;22.558;2023-02-28T04:18:36;12.10;;;6.23;;
34459;SDS011;20704;51.260;22.558;2023-02-28T04:20:39;23.37;;;7.40;;
34459;SDS011;20704;51.260;22.558;2023-02-28T04:22:41;21.53;;;5.47;;
34459;SDS011;20704;51.260;22.558;2023-02-28T04:24:44;15.47;;;6.30;;
34459;SDS011;20704;51.260;22.558;2023-02-28T04:26:47;12.80;;;6.53;;
34459;SDS011;20704;51.260;22.558;2023-02-28T04:28:52;11.17;;;6.57;;
34459;SDS011;20704;51.260;22.558;2023-02-28T04:30:55;13.83;;;6.60;;
34459;SDS011;20704;51.260;22.558;2023-02-28T04:32:59;13.93;;;6.73;;
34459;SDS011;20704;51.260;22.558;2023-02-28T04:35:01;9.20;;;5.80;;
34459;SDS011;20704;51.260;22.558;2023-02-28T04:37:04;10.10;;;5.37;;
34459;SDS011;20704;51.260;22.558;2023-02-28T04:39:15;19.17;;;6.85;;
34459;SDS011;20704;51.260;22.558;2023-02-28T04:41:20;13.37;;;6.17;;
34459;SDS011;20704;51.260;22.558;2023-02-28T04:43:22;15.80;;;7.10;;
34459;SDS011;20704;51.260;22.558;2023-02-28T04:45:25;14.80;;;7.97;;
34459;SDS011;20704;51.260;22.558;2023-02-28T04:47:27;15.47;;;6.57;;
34459;SDS011;20704;51.260;22.558;2023-02-28T04:49:30;14.40;;;7.47;;
34459;SDS011;20704;51.260;22.558;2023-02-28T04:51:32;11.73;;;6.03;;
34459;SDS011;20704;51.260;22.558;2023-02-28T04:53:35;11.53;;;5.43;;
34459;SDS011;20704;51.260;22.558;2023-02-28T04:55:39;14.00;;;5.87;;
34459;SDS011;20704;51.260;22.558;2023-02-28T04:57:41;9.27;;;5.20;;
34459;SDS011;20704;51.260;22.558;2023-02-28T04:59:44;10.20;;;5.30;;
34459;SDS011;20704;51.260;22.558;2023-02-28T05:01:47;12.37;;;5.80;;
34459;SDS011;20704;51.260;22.558;2023-02-28T05:03:50;12.40;;;5.27;;
34459;SDS011;20704;51.260;22.558;2023-02-28T05:05:54;13.30;;;5.07;;
34459;SDS011;20704;51.260;22.558;2023-02-28T05:07:56;10.03;;;5.00;;
34459;SDS011;20704;51.260;22.558;2023-02-28T05:09:59;11.53;;;5.07;;
34459;SDS011;20704;51.260;22.558;2023-02-28T05:12:01;8.27;;;4.10;;
34459;SDS011;20704;51.260;22.558;2023-02-28T05:14:04;8.57;;;5.13;;
34459;SDS011;20704;51.260;22.558;2023-02-28T05:16:08;9.37;;;5.37;;
34459;SDS011;20704;51.260;22.558;2023-02-28T05:18:10;14.63;;;6.57;;
34459;SDS011;20704;51.260;22.558;2023-02-28T05:20:12;11.80;;;5.27;;
34459;SDS011;20704;51.260;22.558;2023-02-28T05:22:17;13.07;;;5.63;;
34459;SDS011;20704;51.260;22.558;2023-02-28T05:24:19;12.33;;;5.57;;
34459;SDS011;20704;51.260;22.558;2023-02-28T05:26:25;13.07;;;5.67;;
34459;SDS011;20704;51.260;22.558;2023-02-28T05:28:28;17.23;;;6.83;;
34459;SDS011;20704;51.260;22.558;2023-02-28T05:30:30;15.70;;;6.77;;
34459;SDS011;20704;51.260;22.558;2023-02-28T05:32:33;14.30;;;7.17;;
34459;SDS011;20704;51.260;22.558;2023-02-28T05:34:36;14.37;;;6.33;;
34459;SDS011;20704;51.260;22.558;2023-02-28T05:36:39;16.43;;;7.47;;
34459;SDS011;20704;51.260;22.558;2023-02-28T05:38:41;14.37;;;6.97;;
34459;SDS011;20704;51.260;22.558;2023-02-28T05:40:44;12.60;;;6.07;;
34459;SDS011;20704;51.260;22.558;2023-02-28T05:42:46;12.47;;;5.93;;
34459;SDS011;20704;51.260;22.558;2023-02-28T05:44:48;14.30;;;7.03;;
34459;SDS011;20704;51.260;22.558;2023-02-28T05:46:58;13.15;;;5.70;;
34459;SDS011;20704;51.260;22.558;2023-02-28T05:49:00;11.67;;;5.47;;
34459;SDS011;20704;51.260;22.558;2023-02-28T05:51:04;11.47;;;5.73;;
34459;SDS011;20704;51.260;22.558;2023-02-28T05:53:07;12.23;;;5.73;;
34459;SDS011;20704;51.260;22.558;2023-02-28T05:55:10;11.00;;;5.47;;
34459;SDS011;20704;51.260;22.558;2023-02-28T05:57:12;13.10;;;6.03;;
34459;SDS011;20704;51.260;22.558;2023-02-28T05:59:25;10.40;;;5.97;;
34459;SDS011;20704;51.260;22.558;2023-02-28T06:03:51;12.90;;;5.80;;
34459;SDS011;20704;51.260;22.558;2023-02-28T06:05:54;13.07;;;4.97;;
34459;SDS011;20704;51.260;22.558;2023-02-28T06:07:57;10.60;;;4.87;;
34459;SDS011;20704;51.260;22.558;2023-02-28T06:09:59;9.10;;;4.97;;
34459;SDS011;20704;51.260;22.558;2023-02-28T06:12:02;9.40;;;4.68;;
34459;SDS011;20704;51.260;22.558;2023-02-28T06:14:06;10.75;;;6.00;;
34459;SDS011;20704;51.260;22.558;2023-02-28T06:16:14;10.88;;;5.57;;
34459;SDS011;20704;51.260;22.558;2023-02-28T06:18:19;11.23;;;6.90;;
34459;SDS011;20704;51.260;22.558;2023-02-28T06:20:21;11.13;;;6.95;;
34459;SDS011;20704;51.260;22.558;2023-02-28T06:22:24;13.15;;;7.22;;
34459;SDS011;20704;51.260;22.558;2023-02-28T06:24:27;18.15;;;8.10;;
34459;SDS011;20704;51.260;22.558;2023-02-28T06:26:29;15.35;;;8.52;;
34459;SDS011;20704;51.260;22.558;2023-02-28T06:28:32;13.57;;;8.50;;
34459;SDS011;20704;51.260;22.558;2023-02-28T06:30:36;17.33;;;9.32;;
34459;SDS011;20704;51.260;22.558;2023-02-28T06:32:39;16.40;;;9.02;;
34459;SDS011;20704;51.260;22.558;2023-02-28T06:34:41;17.42;;;10.40;;
34459;SDS011;20704;51.260;22.558;2023-02-28T06:36:44;16.70;;;9.52;;
34459;SDS011;20704;51.260;22.558;2023-02-28T06:38:47;19.10;;;10.30;;
34459;SDS011;20704;51.260;22.558;2023-02-28T06:40:57;17.75;;;10.68;;
34459;SDS011;20704;51.260;22.558;2023-02-28T06:43:00;17.05;;;9.73;;
34459;SDS011;20704;51.260;22.558;2023-02-28T06:45:02;13.50;;;8.13;;
34459;SDS011;20704;51.260;22.558;2023-02-28T06:47:10;12.68;;;6.95;;
34459;SDS011;20704;51.260;22.558;2023-02-28T06:49:13;12.15;;;5.78;;
34459;SDS011;20704;51.260;22.558;2023-02-28T06:51:19;12.95;;;6.50;;
34459;SDS011;20704;51.260;22.558;2023-02-28T06:53:24;13.25;;;6.18;;
34459;SDS011;20704;51.260;22.558;2023-02-28T06:55:26;12.98;;;6.20;;
34459;SDS011;20704;51.260;22.558;2023-02-28T06:57:32;14.20;;;6.32;;
34459;SDS011;20704;51.260;22.558;2023-02-28T06:59:35;12.35;;;5.88;;
34459;SDS011;20704;51.260;22.558;2023-02-28T07:01:38;17.45;;;6.55;;
34459;SDS011;20704;51.260;22.558;2023-02-28T07:03:41;11.15;;;5.68;;
34459;SDS011;20704;51.260;22.558;2023-02-28T07:05:43;20.23;;;6.55;;
34459;SDS011;20704;51.260;22.558;2023-02-28T07:07:47;10.70;;;6.25;;
34459;SDS011;20704;51.260;22.558;2023-02-28T07:09:50;14.32;;;6.53;;
34459;SDS011;20704;51.260;22.558;2023-02-28T07:11:52;15.32;;;7.65;;
34459;SDS011;20704;51.260;22.558;2023-02-28T07:13:55;15.20;;;7.30;;
34459;SDS011;20704;51.260;22.558;2023-02-28T07:15:59;11.30;;;6.50;;
34459;SDS011;20704;51.260;22.558;2023-02-28T07:18:03;20.85;;;6.38;;
34459;SDS011;20704;51.260;22.558;2023-02-28T07:20:05;12.18;;;6.90;;
34459;SDS011;20704;51.260;22.558;2023-02-28T07:22:09;9.95;;;6.07;;
34459;SDS011;20704;51.260;22.558;2023-02-28T07:24:11;12.93;;;5.35;;
34459;SDS011;20704;51.260;22.558;2023-02-28T07:26:15;10.90;;;6.10;;
34459;SDS011;20704;51.260;22.558;2023-02-28T07:28:18;11.48;;;6.28;;
34459;SDS011;20704;51.260;22.558;2023-02-28T07:30:21;11.95;;;6.03;;
34459;SDS011;20704;51.260;22.558;2023-02-28T07:32:24;8.00;;;5.00;;
34459;SDS011;20704;51.260;22.558;2023-02-28T07:34:26;6.97;;;4.25;;
34459;SDS011;20704;51.260;22.558;2023-02-28T07:36:29;10.02;;;5.65;;
34459;SDS011;20704;51.260;22.558;2023-02-28T07:38:33;12.15;;;4.95;;
34459;SDS011;20704;51.260;22.558;2023-02-28T07:40:36;7.85;;;4.43;;
34459;SDS011;20704;51.260;22.558;2023-02-28T07:42:39;9.02;;;4.90;;
34459;SDS011;20704;51.260;22.558;2023-02-28T07:44:43;10.23;;;4.95;;
34459;SDS011;20704;51.260;22.558;2023-02-28T07:46:45;12.60;;;4.72;;
34459;SDS011;20704;51.260;22.558;2023-02-28T07:48:47;10.55;;;4.97;;
34459;SDS011;20704;51.260;22.558;2023-02-28T07:50:56;9.30;;;4.90;;
34459;SDS011;20704;51.260;22.558;2023-02-28T07:52:59;10.85;;;4.45;;
34459;SDS011;20704;51.260;22.558;2023-02-28T07:55:02;14.55;;;5.18;;
34459;SDS011;20704;51.260;22.558;2023-02-28T07:57:05;9.38;;;4.65;;
34459;SDS011;20704;51.260;22.558;2023-02-28T07:59:08;9.70;;;4.63;;
34459;SDS011;20704;51.260;22.558;2023-02-28T08:01:11;7.40;;;4.60;;
34459;SDS011;20704;51.260;22.558;2023-02-28T08:03:13;8.32;;;4.35;;
34459;SDS011;20704;51.260;22.558;2023-02-28T08:05:19;7.55;;;4.28;;
34459;SDS011;20704;51.260;22.558;2023-02-28T08:07:23;8.20;;;4.32;;
34459;SDS011;20704;51.260;22.558;2023-02-28T08:09:25;6.80;;;4.20;;
34459;SDS011;20704;51.260;22.558;2023-02-28T08:11:28;8.00;;;4.18;;
34459;SDS011;20704;51.260;22.558;2023-02-28T08:13:30;7.97;;;4.50;;
34459;SDS011;20704;51.260;22.558;2023-02-28T08:15:33;6.82;;;4.20;;
34459;SDS011;20704;51.260;22.558;2023-02-28T08:17:35;10.40;;;4.93;;
34459;SDS011;20704;51.260;22.558;2023-02-28T08:19:38;7.85;;;4.07;;
34459;SDS011;20704;51.260;22.558;2023-02-28T08:21:40;9.90;;;4.72;;
34459;SDS011;20704;51.260;22.558;2023-02-28T08:23:43;9.07;;;4.80;;
34459;SDS011;20704;51.260;22.558;2023-02-28T08:25:54;12.27;;;5.93;;
34459;SDS011;20704;51.260;22.558;2023-02-28T08:30:00;12.07;;;6.10;;
34459;SDS011;20704;51.260;22.558;2023-02-28T08:32:02;12.82;;;6.47;;
34459;SDS011;20704;51.260;22.558;2023-02-28T08:34:06;9.88;;;5.45;;
34459;SDS011;20704;51.260;22.558;2023-02-28T08:36:09;8.20;;;5.72;;
34459;SDS011;20704;51.260;22.558;2023-02-28T08:38:12;8.98;;;5.20;;
34459;SDS011;20704;51.260;22.558;2023-02-28T08:40:16;10.48;;;6.28;;
34459;SDS011;20704;51.260;22.558;2023-02-28T08:42:22;14.10;;;5.38;;
34459;SDS011;20704;51.260;22.558;2023-02-28T08:44:25;9.40;;;5.38;;
34459;SDS011;20704;51.260;22.558;2023-02-28T08:46:28;9.80;;;5.63;;
34459;SDS011;20704;51.260;22.558;2023-02-28T08:48:32;10.30;;;5.72;;
34459;SDS011;20704;51.260;22.558;2023-02-28T08:50:35;10.30;;;5.50;;
34459;SDS011;20704;51.260;22.558;2023-02-28T08:52:38;10.80;;;5.97;;
34459;SDS011;20704;51.260;22.558;2023-02-28T08:54:40;8.73;;;5.18;;
34459;SDS011;20704;51.260;22.558;2023-02-28T08:56:42;10.20;;;5.82;;
34459;SDS011;20704;51.260;22.558;2023-02-28T08:58:45;8.40;;;5.28;;
34459;SDS011;20704;51.260;22.558;2023-02-28T09:00:49;7.25;;;4.80;;
34459;SDS011;20704;51.260;22.558;2023-02-28T09:02:52;13.10;;;5.55;;
34459;SDS011;20704;51.260;22.558;2023-02-28T09:04:56;8.77;;;4.78;;
34459;SDS011;20704;51.260;22.558;2023-02-28T09:06:59;7.63;;;4.43;;
34459;SDS011;20704;51.260;22.558;2023-02-28T09:09:02;9.20;;;5.40;;
34459;SDS011;20704;51.260;22.558;2023-02-28T09:11:07;9.63;;;4.85;;
34459;SDS011;20704;51.260;22.558;2023-02-28T09:13:10;6.80;;;4.55;;
34459;SDS011;20704;51.260;22.558;2023-02-28T09:15:12;8.13;;;4.80;;
34459;SDS011;20704;51.260;22.558;2023-02-28T09:17:17;8.20;;;4.88;;
34459;SDS011;20704;51.260;22.558;2023-02-28T09:19:20;9.25;;;4.57;;
34459;SDS011;20704;51.260;22.558;2023-02-28T09:21:24;9.10;;;4.60;;
34459;SDS011;20704;51.260;22.558;2023-02-28T09:23:27;9.73;;;5.18;;
34459;SDS011;20704;51.260;22.558;2023-02-28T09:25:29;8.23;;;4.85;;
34459;SDS011;20704;51.260;22.558;2023-02-28T09:27:31;11.40;;;4.88;;
34459;SDS011;20704;51.260;22.558;2023-02-28T09:29:34;7.60;;;4.22;;
34459;SDS011;20704;51.260;22.558;2023-02-28T09:31:36;8.13;;;4.57;;
34459;SDS011;20704;51.260;22.558;2023-02-28T09:33:39;8.73;;;5.07;;
34459;SDS011;20704;51.260;22.558;2023-02-28T09:35:41;12.80;;;5.38;;
34459;SDS011;20704;51.260;22.558;2023-02-28T09:37:44;10.27;;;4.85;;
34459;SDS011;20704;51.260;22.558;2023-02-28T09:39:46;7.80;;;4.60;;
34459;SDS011;20704;51.260;22.558;2023-02-28T09:41:52;7.97;;;4.45;;
34459;SDS011;20704;51.260;22.558;2023-02-28T09:43:57;8.57;;;4.20;;
34459;SDS011;20704;51.260;22.558;2023-02-28T09:46:26;8.02;;;5.03;;
34459;SDS011;20704;51.260;22.558;2023-02-28T09:48:34;8.35;;;4.43;;
34459;SDS011;20704;51.260;22.558;2023-02-28T09:50:44;7.55;;;4.45;;
34459;SDS011;20704;51.260;22.558;2023-02-28T09:52:51;9.07;;;5.20;;
34459;SDS011;20704;51.260;22.558;2023-02-28T09:55:18;8.95;;;4.90;;
34459;SDS011;20704;51.260;22.558;2023-02-28T09:57:36;13.18;;;4.68;;
34459;SDS011;20704;51.260;22.558;2023-02-28T09:59:51;11.52;;;5.75;;
34459;SDS011;20704;51.260;22.558;2023-02-28T10:02:17;9.30;;;5.10;;
34459;SDS011;20704;51.260;22.558;2023-02-28T10:04:42;9.90;;;4.90;;
34459;SDS011;20704;51.260;22.558;2023-02-28T10:06:49;10.93;;;5.85;;
34459;SDS011;20704;51.260;22.558;2023-02-28T10:11:07;12.48;;;5.68;;
34459;SDS011;20704;51.260;22.558;2023-02-28T10:15:27;10.68;;;4.93;;
34459;SDS011;20704;51.260;22.558;2023-02-28T10:17:37;8.38;;;5.30;;
34459;SDS011;20704;51.260;22.558;2023-02-28T10:20:00;9.95;;;5.70;;
34459;SDS011;20704;51.260;22.558;2023-02-28T10:22:20;11.57;;;5.80;;
34459;SDS011;20704;51.260;22.558;2023-02-28T10:24:40;9.95;;;5.07;;
34459;SDS011;20704;51.260;22.558;2023-02-28T10:26:45;8.13;;;5.25;;
34459;SDS011;20704;51.260;22.558;2023-02-28T10:28:49;8.18;;;4.22;;
34459;SDS011;20704;51.260;22.558;2023-02-28T10:30:54;9.20;;;4.90;;
34459;SDS011;20704;51.260;22.558;2023-02-28T10:32:57;11.13;;;5.47;;
34459;SDS011;20704;51.260;22.558;2023-02-28T10:37:08;11.68;;;5.55;;
34459;SDS011;20704;51.260;22.558;2023-02-28T10:39:33;15.43;;;5.25;;
34459;SDS011;20704;51.260;22.558;2023-02-28T10:41:38;11.25;;;4.80;;
34459;SDS011;20704;51.260;22.558;2023-02-28T10:43:44;9.90;;;5.38;;
34459;SDS011;20704;51.260;22.558;2023-02-28T10:48:05;7.75;;;4.53;;
34459;SDS011;20704;51.260;22.558;2023-02-28T10:50:29;10.70;;;5.20;;
34459;SDS011;20704;51.260;22.558;2023-02-28T10:52:43;9.13;;;5.32;;
34459;SDS011;20704;51.260;22.558;2023-02-28T10:54:46;8.73;;;5.50;;
34459;SDS011;20704;51.260;22.558;2023-02-28T10:59:23;7.68;;;5.03;;
34459;SDS011;20704;51.260;22.558;2023-02-28T11:03:46;12.95;;;5.97;;
34459;SDS011;20704;51.260;22.558;2023-02-28T11:05:50;14.90;;;5.63;;
34459;SDS011;20704;51.260;22.558;2023-02-28T11:07:53;8.70;;;4.72;;
34459;SDS011;20704;51.260;22.558;2023-02-28T11:09:57;10.88;;;5.63;;
34459;SDS011;20704;51.260;22.558;2023-02-28T11:12:00;13.82;;;5.22;;
34459;SDS011;20704;51.260;22.558;2023-02-28T11:14:15;8.73;;;5.57;;
34459;SDS011;20704;51.260;22.558;2023-02-28T11:16:31;9.45;;;5.10;;
34459;SDS011;20704;51.260;22.558;2023-02-28T11:20:49;10.63;;;5.85;;
34459;SDS011;20704;51.260;22.558;2023-02-28T11:22:54;10.00;;;5.78;;
34459;SDS011;20704;51.260;22.558;2023-02-28T11:24:59;12.27;;;6.93;;
34459;SDS011;20704;51.260;22.558;2023-02-28T11:27:05;10.68;;;5.40;;
34459;SDS011;20704;51.260;22.558;2023-02-28T11:31:23;11.90;;;5.93;;
34459;SDS011;20704;51.260;22.558;2023-02-28T11:33:29;9.75;;;5.47;;
34459;SDS011;20704;51.260;22.558;2023-02-28T11:35:36;8.02;;;4.97;;
34459;SDS011;20704;51.260;22.558;2023-02-28T11:37:40;11.23;;;6.28;;
34459;SDS011;20704;51.260;22.558;2023-02-28T11:39:43;10.27;;;5.82;;
34459;SDS011;20704;51.260;22.558;2023-02-28T11:41:52;8.63;;;5.18;;
34459;SDS011;20704;51.260;22.558;2023-02-28T11:44:05;10.10;;;6.38;;
34459;SDS011;20704;51.260;22.558;2023-02-28T11:52:56;14.10;;;6.57;;
34459;SDS011;20704;51.260;22.558;2023-02-28T11:55:07;10.77;;;5.63;;
34459;SDS011;20704;51.260;22.558;2023-02-28T12:02:22;9.32;;;5.47;;
34459;SDS011;20704;51.260;22.558;2023-02-28T12:13:43;10.30;;;5.72;;
34459;SDS011;20704;51.260;22.558;2023-02-28T12:18:36;10.68;;;5.82;;
34459;SDS011;20704;51.260;22.558;2023-02-28T12:26:18;8.43;;;6.28;;
34459;SDS011;20704;51.260;22.558;2023-02-28T12:28:31;9.20;;;6.90;;
34459;SDS011;20704;51.260;22.558;2023-02-28T12:30:39;7.85;;;4.85;;
34459;SDS011;20704;51.260;22.558;2023-02-28T12:32:52;8.57;;;5.93;;
34459;SDS011;20704;51.260;22.558;2023-02-28T12:35:15;9.70;;;6.30;;
34459;SDS011;20704;51.260;22.558;2023-02-28T12:37:29;13.20;;;5.78;;
34459;SDS011;20704;51.260;22.558;2023-02-28T12:39:46;11.23;;;5.82;;
34459;SDS011;20704;51.260;22.558;2023-02-28T12:42:03;8.88;;;5.53;;
34459;SDS011;20704;51.260;22.558;2023-02-28T12:44:32;7.60;;;5.47;;
34459;SDS011;20704;51.260;22.558;2023-02-28T12:46:44;8.55;;;5.22;;
34459;SDS011;20704;51.260;22.558;2023-02-28T12:48:56;8.18;;;5.22;;
34459;SDS011;20704;51.260;22.558;2023-02-28T12:50:59;10.20;;;5.55;;
34459;SDS011;20704;51.260;22.558;2023-02-28T12:53:13;11.30;;;6.45;;
34459;SDS011;20704;51.260;22.558;2023-02-28T12:57:50;10.02;;;5.50;;
34459;SDS011;20704;51.260;22.558;2023-02-28T13:09:15;10.30;;;4.85;;
34459;SDS011;20704;51.260;22.558;2023-02-28T13:11:31;8.48;;;5.10;;
34459;SDS011;20704;51.260;22.558;2023-02-28T13:13:40;7.45;;;4.60;;
34459;SDS011;20704;51.260;22.558;2023-02-28T13:15:57;9.48;;;5.70;;
34459;SDS011;20704;51.260;22.558;2023-02-28T13:18:00;7.90;;;4.97;;
34459;SDS011;20704;51.260;22.558;2023-02-28T13:20:03;11.68;;;5.65;;
34459;SDS011;20704;51.260;22.558;2023-02-28T13:22:10;7.95;;;5.10;;
34459;SDS011;20704;51.260;22.558;2023-02-28T13:35:43;7.65;;;4.80;;
34459;SDS011;20704;51.260;22.558;2023-02-28T13:37:47;9.95;;;5.85;;
34459;SDS011;20704;51.260;22.558;2023-02-28T13:39:52;14.38;;;6.03;;
34459;SDS011;20704;51.260;22.558;2023-02-28T13:44:23;8.55;;;5.13;;
34459;SDS011;20704;51.260;22.558;2023-02-28T13:46:28;9.18;;;5.57;;
34459;SDS011;20704;51.260;22.558;2023-02-28T13:48:31;10.23;;;5.68;;
34459;SDS011;20704;51.260;22.558;2023-02-28T13:52:43;6.45;;;4.25;;
34459;SDS011;20704;51.260;22.558;2023-02-28T13:55:06;6.68;;;4.75;;
34459;SDS011;20704;51.260;22.558;2023-02-28T14:06:56;10.90;;;5.18;;
34459;SDS011;20704;51.260;22.558;2023-02-28T14:11:04;14.70;;;6.10;;
34459;SDS011;20704;51.260;22.558;2023-02-28T14:13:36;12.20;;;4.88;;
34459;SDS011;20704;51.260;22.558;2023-02-28T14:15:55;9.45;;;5.72;;
34459;SDS011;20704;51.260;22.558;2023-02-28T14:17:59;9.50;;;5.60;;
34459;SDS011;20704;51.260;22.558;2023-02-28T14:20:05;9.90;;;5.25;;
34459;SDS011;20704;51.260;22.558;2023-02-28T14:34:31;10.63;;;4.78;;
34459;SDS011;20704;51.260;22.558;2023-02-28T14:36:42;6.93;;;4.38;;
34459;SDS011;20704;51.260;22.558;2023-02-28T14:38:50;8.88;;;5.53;;